createdAt,value
2022-12-19T00:00:14.938Z,1015.26
2022-12-19T00:01:14.028Z,1015.23
2022-12-19T00:02:14.139Z,1015.17
2022-12-19T00:03:14.103Z,1015.18
2022-12-19T00:04:13.998Z,1015.13
2022-12-19T00:05:13.998Z,1015.08
2022-12-19T00:06:13.979Z,1015.11
2022-12-19T00:07:13.962Z,1015.11
2022-12-19T00:08:17.016Z,1015.06
2022-12-19T00:09:13.940Z,1015.05
2022-12-19T00:10:13.945Z,1015.04
2022-12-19T00:11:13.919Z,1015.01
2022-12-19T00:12:19.059Z,1015.03
2022-12-19T00:13:13.910Z,1015.00
2022-12-19T00:14:13.889Z,1014.99
2022-12-19T00:15:13.888Z,1015.00
2022-12-19T00:16:13.916Z,1014.97
2022-12-19T00:17:13.853Z,1014.87
2022-12-19T00:18:13.847Z,1014.84
2022-12-19T00:19:13.829Z,1014.85
2022-12-19T00:20:13.851Z,1014.83
2022-12-19T00:21:13.810Z,1014.82
2022-12-19T00:22:13.804Z,1014.82
2022-12-19T00:23:13.790Z,1014.82
2022-12-19T00:24:21.280Z,1014.82
2022-12-19T00:25:13.795Z,1014.79
2022-12-19T00:26:13.763Z,1014.78
2022-12-19T00:27:13.750Z,1014.71
2022-12-19T00:28:13.767Z,1014.72
2022-12-19T00:29:14.630Z,1014.68
2022-12-19T00:30:13.731Z,1014.63
2022-12-19T00:31:13.789Z,1014.64
2022-12-19T00:32:13.721Z,1014.65
2022-12-19T00:33:13.681Z,1014.63
2022-12-19T00:34:13.678Z,1014.63
2022-12-19T00:35:13.672Z,1014.64
2022-12-19T00:36:13.652Z,1014.65
2022-12-19T00:37:13.637Z,1014.61
2022-12-19T00:38:13.631Z,1014.60
2022-12-19T00:39:13.618Z,1014.52
2022-12-19T00:40:13.623Z,1014.50
2022-12-19T00:41:13.594Z,1014.48
2022-12-19T00:42:13.588Z,1014.51
2022-12-19T00:43:13.571Z,1014.51
2022-12-19T00:44:13.855Z,1014.50
2022-12-19T00:45:13.565Z,1014.55
2022-12-19T00:46:13.614Z,1014.55
2022-12-19T00:47:13.534Z,1014.54
2022-12-19T00:48:13.525Z,1014.56
2022-12-19T00:49:13.509Z,1014.56
2022-12-19T00:50:13.514Z,1014.53
2022-12-19T00:51:13.487Z,1014.48
2022-12-19T00:52:13.480Z,1014.47
2022-12-19T00:53:13.465Z,1014.39
2022-12-19T00:54:13.460Z,1014.34
2022-12-19T00:55:18.758Z,1014.36
2022-12-19T00:56:13.442Z,1014.32
2022-12-19T00:57:13.423Z,1014.36
2022-12-19T00:58:13.418Z,1014.32
2022-12-19T00:59:13.399Z,1014.36
2022-12-19T01:00:13.407Z,1014.33
2022-12-19T01:01:13.424Z,1014.37
2022-12-19T01:02:13.524Z,1014.40
2022-12-19T01:03:13.392Z,1014.39
2022-12-19T01:04:29.793Z,1014.43
2022-12-19T01:05:13.353Z,1014.41
2022-12-19T01:06:13.328Z,1014.34
2022-12-19T01:07:13.317Z,1014.33
2022-12-19T01:08:13.308Z,1014.38
2022-12-19T01:09:13.290Z,1014.29
2022-12-19T01:10:13.299Z,1014.31
2022-12-19T01:11:13.272Z,1014.28
2022-12-19T01:12:13.269Z,1014.26
2022-12-19T01:13:13.251Z,1014.31
2022-12-19T01:14:19.057Z,1014.29
2022-12-19T01:15:13.246Z,1014.33
2022-12-19T01:16:13.301Z,1014.26
2022-12-19T01:17:13.211Z,1014.27
2022-12-19T01:18:13.200Z,1014.19
2022-12-19T01:19:13.184Z,1014.16
2022-12-19T01:20:13.194Z,1014.12
2022-12-19T01:21:13.161Z,1014.14
2022-12-19T01:22:13.164Z,1014.12
2022-12-19T01:23:13.140Z,1014.14
2022-12-19T01:24:13.762Z,1014.06
2022-12-19T01:25:13.125Z,1014.08
2022-12-19T01:26:13.123Z,1014.09
2022-12-19T01:27:13.097Z,1014.00
2022-12-19T01:28:13.092Z,1014.00
2022-12-19T01:29:13.078Z,1014.08
2022-12-19T01:30:13.080Z,1014.06
2022-12-19T01:31:13.094Z,1014.11
2022-12-19T01:32:13.049Z,1014.00
2022-12-19T01:33:13.030Z,1013.99
2022-12-19T01:34:13.023Z,1013.97
2022-12-19T01:35:20.724Z,1014.03
2022-12-19T01:36:13.024Z,1013.95
2022-12-19T01:37:12.986Z,1013.98
2022-12-19T01:38:12.981Z,1013.99
2022-12-19T01:39:12.964Z,1013.98
2022-12-19T01:40:12.991Z,1013.98
2022-12-19T01:41:12.956Z,1013.94
2022-12-19T01:42:12.944Z,1013.93
2022-12-19T01:43:12.934Z,1013.95
2022-12-19T01:44:12.916Z,1013.95
2022-12-19T01:45:14.100Z,1013.96
2022-12-19T01:46:12.936Z,1013.95
2022-12-19T01:47:12.880Z,1013.91
2022-12-19T01:48:12.878Z,1013.94
2022-12-19T01:49:12.878Z,1013.96
2022-12-19T01:50:12.850Z,1013.97
2022-12-19T01:51:12.849Z,1013.99
2022-12-19T01:52:13.512Z,1014.01
2022-12-19T01:53:12.818Z,1013.99
2022-12-19T01:54:12.815Z,1013.94
2022-12-19T01:55:12.794Z,1013.91
2022-12-19T01:56:12.768Z,1013.95
2022-12-19T01:57:12.742Z,1013.93
2022-12-19T01:58:12.742Z,1013.92
2022-12-19T01:59:12.718Z,1013.86
2022-12-19T02:00:12.712Z,1013.84
2022-12-19T02:01:12.742Z,1013.80
2022-12-19T02:02:12.753Z,1013.77
2022-12-19T02:03:12.807Z,1013.72
2022-12-19T02:04:12.672Z,1013.70
2022-12-19T02:05:12.657Z,1013.65
2022-12-19T02:06:12.672Z,1013.66
2022-12-19T02:07:15.868Z,1013.66
2022-12-19T02:08:12.630Z,1013.63
2022-12-19T02:09:12.610Z,1013.66
2022-12-19T02:10:12.614Z,1013.58
2022-12-19T02:11:12.612Z,1013.61
2022-12-19T02:12:12.591Z,1013.59
2022-12-19T02:13:12.574Z,1013.61
2022-12-19T02:14:12.564Z,1013.57
2022-12-19T02:15:12.549Z,1013.58
2022-12-19T02:16:12.573Z,1013.53
2022-12-19T02:17:12.541Z,1013.54
2022-12-19T02:18:12.523Z,1013.53
2022-12-19T02:19:12.517Z,1013.45
2022-12-19T02:20:12.502Z,1013.46
2022-12-19T02:21:12.499Z,1013.42
2022-12-19T02:22:17.408Z,1013.48
2022-12-19T02:23:13.054Z,1013.53
2022-12-19T02:24:12.467Z,1013.46
2022-12-19T02:25:12.452Z,1013.47
2022-12-19T02:26:12.450Z,1013.39
2022-12-19T02:27:12.442Z,1013.43
2022-12-19T02:28:12.416Z,1013.39
2022-12-19T02:29:12.409Z,1013.37
2022-12-19T02:30:12.409Z,1013.36
2022-12-19T02:31:16.759Z,1013.35
2022-12-19T02:32:12.443Z,1013.35
2022-12-19T02:33:12.372Z,1013.36
2022-12-19T02:34:12.357Z,1013.32
2022-12-19T02:35:12.345Z,1013.36
2022-12-19T02:36:12.333Z,1013.36
2022-12-19T02:37:12.344Z,1013.38
2022-12-19T02:38:13.189Z,1013.30
2022-12-19T02:39:12.305Z,1013.37
2022-12-19T02:40:12.290Z,1013.26
2022-12-19T02:41:12.294Z,1013.20
2022-12-19T02:42:12.292Z,1013.17
2022-12-19T02:43:12.269Z,1013.17
2022-12-19T02:44:12.249Z,1013.12
2022-12-19T02:45:12.257Z,1013.10
2022-12-19T02:46:12.261Z,1013.06
2022-12-19T02:47:12.245Z,1013.05
2022-12-19T02:48:15.066Z,1013.04
2022-12-19T02:49:12.208Z,1013.03
2022-12-19T02:50:12.187Z,1012.98
2022-12-19T02:51:12.183Z,1012.99
2022-12-19T02:52:12.222Z,1012.99
2022-12-19T02:53:12.161Z,1012.98
2022-12-19T02:54:12.148Z,1012.97
2022-12-19T02:55:12.139Z,1013.01
2022-12-19T02:56:12.129Z,1012.98
2022-12-19T02:57:12.130Z,1012.98
2022-12-19T02:58:12.108Z,1013.00
2022-12-19T02:59:12.098Z,1013.05
2022-12-19T03:00:12.085Z,1012.98
2022-12-19T03:01:12.102Z,1012.87
2022-12-19T03:02:12.303Z,1012.74
2022-12-19T03:03:12.287Z,1012.74
2022-12-19T03:07:47.586Z,1012.80
2022-12-19T03:08:48.567Z,1012.81
2022-12-19T03:09:48.563Z,1012.72
2022-12-19T03:10:48.550Z,1012.75
2022-12-19T03:11:48.540Z,1012.68
2022-12-19T03:12:48.543Z,1012.59
2022-12-19T03:13:48.526Z,1012.53
2022-12-19T03:14:48.504Z,1012.52
2022-12-19T03:15:48.506Z,1012.41
2022-12-19T03:16:48.943Z,1012.46
2022-12-19T03:17:48.777Z,1012.50
2022-12-19T03:18:48.845Z,1012.53
2022-12-19T03:19:48.803Z,1012.52
2022-12-19T03:20:48.935Z,1012.49
2022-12-19T03:21:48.842Z,1012.50
2022-12-19T03:22:48.829Z,1012.50
2022-12-19T03:23:48.791Z,1012.53
2022-12-19T03:24:48.560Z,1012.49
2022-12-19T03:25:48.398Z,1012.45
2022-12-19T03:26:48.401Z,1012.51
2022-12-19T03:27:48.383Z,1012.49
2022-12-19T03:28:48.357Z,1012.49
2022-12-19T03:29:48.362Z,1012.47
2022-12-19T03:30:48.364Z,1012.48
2022-12-19T03:31:48.334Z,1012.48
2022-12-19T03:32:48.327Z,1012.46
2022-12-19T03:33:48.309Z,1012.39
2022-12-19T03:34:48.296Z,1012.41
2022-12-19T03:35:48.292Z,1012.37
2022-12-19T03:36:48.268Z,1012.35
2022-12-19T03:37:48.284Z,1012.39
2022-12-19T03:38:48.251Z,1012.40
2022-12-19T03:39:48.249Z,1012.34
2022-12-19T03:40:48.229Z,1012.34
2022-12-19T03:41:48.223Z,1012.36
2022-12-19T03:42:48.222Z,1012.35
2022-12-19T03:43:48.205Z,1012.31
2022-12-19T03:44:48.186Z,1012.30
2022-12-19T03:45:48.199Z,1012.34
2022-12-19T03:46:48.171Z,1012.34
2022-12-19T03:47:48.185Z,1012.30
2022-12-19T03:48:48.149Z,1012.24
2022-12-19T03:49:48.143Z,1012.32
2022-12-19T03:50:48.124Z,1012.32
2022-12-19T03:51:48.123Z,1012.24
2022-12-19T03:52:48.116Z,1012.21
2022-12-19T03:53:48.094Z,1012.24
2022-12-19T03:54:48.082Z,1012.26
2022-12-19T03:55:48.175Z,1012.20
2022-12-19T03:56:48.059Z,1012.20
2022-12-19T03:57:48.065Z,1012.22
2022-12-19T03:58:48.037Z,1012.18
2022-12-19T03:59:48.034Z,1012.15
2022-12-19T04:00:48.023Z,1012.16
2022-12-19T04:01:48.077Z,1012.14
2022-12-19T04:02:48.006Z,1012.22
2022-12-19T04:03:48.044Z,1012.13
2022-12-19T04:04:47.978Z,1012.10
2022-12-19T04:05:47.966Z,1012.10
2022-12-19T04:06:47.951Z,1012.07
2022-12-19T04:07:47.976Z,1012.08
2022-12-19T04:08:47.935Z,1012.09
2022-12-19T04:09:47.926Z,1012.05
2022-12-19T04:10:47.925Z,1012.04
2022-12-19T04:11:47.904Z,1012.03
2022-12-19T04:12:47.901Z,1012.01
2022-12-19T04:13:47.888Z,1011.98
2022-12-19T04:14:47.870Z,1012.02
2022-12-19T04:15:47.922Z,1011.99
2022-12-19T04:16:47.874Z,1012.01
2022-12-19T04:17:47.851Z,1011.97
2022-12-19T04:18:47.831Z,1012.00
2022-12-19T04:19:47.818Z,1011.97
2022-12-19T04:20:47.811Z,1011.99
2022-12-19T04:21:47.798Z,1011.97
2022-12-19T04:22:47.798Z,1012.01
2022-12-19T04:23:47.772Z,1011.88
2022-12-19T04:24:47.766Z,1011.91
2022-12-19T04:25:47.753Z,1011.94
2022-12-19T04:26:47.745Z,1011.93
2022-12-19T04:27:47.739Z,1011.92
2022-12-19T04:28:47.719Z,1011.90
2022-12-19T04:29:47.706Z,1011.85
2022-12-19T04:30:47.759Z,1011.84
2022-12-19T04:31:47.697Z,1011.82
2022-12-19T04:32:47.689Z,1011.81
2022-12-19T04:33:47.672Z,1011.79
2022-12-19T04:34:47.663Z,1011.79
2022-12-19T04:35:47.644Z,1011.75
2022-12-19T04:36:47.635Z,1011.75
2022-12-19T04:37:47.635Z,1011.74
2022-12-19T04:38:47.623Z,1011.68
2022-12-19T04:39:47.604Z,1011.65
2022-12-19T04:40:47.593Z,1011.62
2022-12-19T04:41:47.593Z,1011.63
2022-12-19T04:42:47.588Z,1011.63
2022-12-19T04:43:47.558Z,1011.61
2022-12-19T04:44:47.547Z,1011.60
2022-12-19T04:45:49.721Z,1011.62
2022-12-19T04:46:47.583Z,1011.63
2022-12-19T04:47:47.522Z,1011.57
2022-12-19T04:48:47.512Z,1011.57
2022-12-19T04:49:47.495Z,1011.51
2022-12-19T04:50:47.486Z,1011.55
2022-12-19T04:51:47.468Z,1011.52
2022-12-19T04:52:47.483Z,1011.53
2022-12-19T04:53:47.449Z,1011.49
2022-12-19T04:54:47.440Z,1011.51
2022-12-19T04:55:47.427Z,1011.49
2022-12-19T04:56:47.426Z,1011.51
2022-12-19T04:57:47.401Z,1011.46
2022-12-19T04:58:47.406Z,1011.44
2022-12-19T04:59:47.384Z,1011.46
2022-12-19T05:00:47.381Z,1011.43
2022-12-19T05:01:47.453Z,1011.45
2022-12-19T05:02:47.614Z,1011.42
2022-12-19T05:03:52.686Z,1011.41
2022-12-19T05:04:47.336Z,1011.35
2022-12-19T05:05:47.321Z,1011.35
2022-12-19T05:06:47.335Z,1011.30
2022-12-19T05:07:47.300Z,1011.30
2022-12-19T05:08:47.300Z,1011.31
2022-12-19T05:09:47.273Z,1011.25
2022-12-19T05:10:47.265Z,1011.24
2022-12-19T05:11:47.248Z,1011.22
2022-12-19T05:12:47.243Z,1011.27
2022-12-19T05:13:47.270Z,1011.23
2022-12-19T05:14:47.230Z,1011.27
2022-12-19T05:15:47.240Z,1011.27
2022-12-19T05:16:47.205Z,1011.25
2022-12-19T05:17:47.199Z,1011.26
2022-12-19T05:18:47.196Z,1011.26
2022-12-19T05:19:47.165Z,1011.25
2022-12-19T05:20:47.156Z,1011.26
2022-12-19T05:21:47.139Z,1011.28
2022-12-19T05:22:47.144Z,1011.24
2022-12-19T05:23:47.130Z,1011.20
2022-12-19T05:24:47.113Z,1011.20
2022-12-19T05:25:47.097Z,1011.19
2022-12-19T05:26:47.089Z,1011.16
2022-12-19T05:27:47.074Z,1011.15
2022-12-19T05:28:47.089Z,1011.14
2022-12-19T05:29:47.051Z,1011.20
2022-12-19T05:30:52.054Z,1011.19
2022-12-19T05:31:47.063Z,1011.13
2022-12-19T05:32:47.025Z,1011.10
2022-12-19T05:33:47.021Z,1011.07
2022-12-19T05:34:47.020Z,1011.08
2022-12-19T05:35:46.996Z,1011.01
2022-12-19T05:36:46.983Z,1011.02
2022-12-19T05:37:46.981Z,1011.03
2022-12-19T05:38:46.976Z,1011.01
2022-12-19T05:39:46.943Z,1011.01
2022-12-19T05:40:46.939Z,1011.01
2022-12-19T05:41:49.224Z,1011.01
2022-12-19T05:42:46.914Z,1011.05
2022-12-19T05:43:46.923Z,1011.07
2022-12-19T05:44:46.898Z,1011.05
2022-12-19T05:45:46.881Z,1011.04
2022-12-19T05:46:46.926Z,1011.07
2022-12-19T05:47:46.856Z,1011.07
2022-12-19T05:48:46.859Z,1011.09
2022-12-19T05:49:46.846Z,1011.10
2022-12-19T05:50:46.828Z,1011.16
2022-12-19T05:51:46.823Z,1011.18
2022-12-19T05:52:46.811Z,1011.18
2022-12-19T05:53:46.792Z,1011.17
2022-12-19T05:54:46.794Z,1011.17
2022-12-19T05:55:46.764Z,1011.14
2022-12-19T05:56:46.762Z,1011.14
2022-12-19T05:57:46.746Z,1011.17
2022-12-19T05:58:46.749Z,1011.19
2022-12-19T05:59:46.736Z,1011.16
2022-12-19T06:00:46.722Z,1011.16
2022-12-19T06:01:46.746Z,1011.17
2022-12-19T06:02:46.837Z,1011.17
2022-12-19T06:03:46.789Z,1011.20
2022-12-19T06:04:46.686Z,1011.19
2022-12-19T06:05:46.659Z,1011.19
2022-12-19T06:06:46.674Z,1011.18
2022-12-19T06:07:46.639Z,1011.20
2022-12-19T06:08:46.627Z,1011.17
2022-12-19T06:09:46.635Z,1011.16
2022-12-19T06:10:46.612Z,1011.24
2022-12-19T06:11:46.594Z,1011.19
2022-12-19T06:12:46.593Z,1011.24
2022-12-19T06:13:46.574Z,1011.25
2022-12-19T06:14:46.568Z,1011.23
2022-12-19T06:15:46.605Z,1011.25
2022-12-19T06:16:46.538Z,1011.19
2022-12-19T06:17:46.575Z,1011.21
2022-12-19T06:18:46.518Z,1011.20
2022-12-19T06:19:46.521Z,1011.17
2022-12-19T06:20:46.495Z,1011.18
2022-12-19T06:21:48.383Z,1011.22
2022-12-19T06:22:46.480Z,1011.21
2022-12-19T06:23:46.474Z,1011.19
2022-12-19T06:24:46.460Z,1011.22
2022-12-19T06:25:46.442Z,1011.20
2022-12-19T06:26:46.428Z,1011.20
2022-12-19T06:27:46.427Z,1011.15
2022-12-19T06:28:46.405Z,1011.16
2022-12-19T06:29:46.413Z,1011.11
2022-12-19T06:30:46.383Z,1011.08
2022-12-19T06:31:46.396Z,1011.09
2022-12-19T06:32:46.362Z,1011.15
2022-12-19T06:33:46.356Z,1011.09
2022-12-19T06:35:03.637Z,1011.08
2022-12-19T06:35:46.340Z,1011.07
2022-12-19T06:36:46.318Z,1011.02
2022-12-19T06:37:46.312Z,1011.05
2022-12-19T06:38:46.296Z,1010.98
2022-12-19T06:39:46.304Z,1011.01
2022-12-19T06:40:46.283Z,1011.03
2022-12-19T06:41:46.274Z,1011.00
2022-12-19T06:42:46.251Z,1010.99
2022-12-19T06:43:49.210Z,1011.04
2022-12-19T06:44:46.264Z,1010.99
2022-12-19T06:45:46.275Z,1010.99
2022-12-19T06:46:46.213Z,1010.97
2022-12-19T06:47:46.199Z,1011.03
2022-12-19T06:48:46.186Z,1010.99
2022-12-19T06:49:46.201Z,1010.98
2022-12-19T06:50:46.167Z,1010.97
2022-12-19T06:51:46.183Z,1011.02
2022-12-19T06:52:46.249Z,1010.96
2022-12-19T06:53:46.134Z,1011.00
2022-12-19T06:54:46.134Z,1010.96
2022-12-19T06:55:46.115Z,1010.93
2022-12-19T06:56:46.098Z,1010.96
2022-12-19T06:57:46.090Z,1010.93
2022-12-19T06:58:46.188Z,1010.87
2022-12-19T06:59:46.082Z,1010.86
2022-12-19T07:00:46.088Z,1010.94
2022-12-19T07:01:46.216Z,1010.90
2022-12-19T07:02:46.184Z,1010.89
2022-12-19T07:03:46.030Z,1010.88
2022-12-19T07:04:46.032Z,1010.90
2022-12-19T07:05:46.005Z,1010.89
2022-12-19T07:06:49.074Z,1010.88
2022-12-19T07:07:45.990Z,1010.91
2022-12-19T07:08:45.972Z,1010.94
2022-12-19T07:09:45.959Z,1010.90
2022-12-19T07:10:46.036Z,1010.91
2022-12-19T07:11:45.958Z,1010.91
2022-12-19T07:12:45.921Z,1010.86
2022-12-19T07:13:45.926Z,1010.91
2022-12-19T07:14:51.662Z,1010.87
2022-12-19T07:15:45.908Z,1010.90
2022-12-19T07:16:45.935Z,1010.90
2022-12-19T07:17:45.871Z,1010.88
2022-12-19T07:18:46.171Z,1010.86
2022-12-19T07:19:45.857Z,1010.78
2022-12-19T07:20:45.849Z,1010.80
2022-12-19T07:21:45.829Z,1010.87
2022-12-19T07:22:45.827Z,1010.83
2022-12-19T07:23:45.807Z,1010.85
2022-12-19T07:24:45.795Z,1010.85
2022-12-19T07:25:45.792Z,1010.87
2022-12-19T07:26:45.858Z,1010.87
2022-12-19T07:27:45.759Z,1010.85
2022-12-19T07:28:45.748Z,1010.87
2022-12-19T07:29:45.755Z,1010.91
2022-12-19T07:30:45.803Z,1010.86
2022-12-19T07:31:46.004Z,1010.89
2022-12-19T07:32:45.857Z,1010.88
2022-12-19T07:33:45.703Z,1010.90
2022-12-19T07:34:45.705Z,1010.83
2022-12-19T07:35:45.692Z,1010.88
2022-12-19T07:36:45.659Z,1010.90
2022-12-19T07:37:45.658Z,1010.86
2022-12-19T07:38:45.638Z,1010.90
2022-12-19T07:39:46.312Z,1010.89
2022-12-19T07:40:45.627Z,1010.88
2022-12-19T07:41:45.619Z,1010.92
2022-12-19T07:42:45.596Z,1010.88
2022-12-19T07:43:45.591Z,1010.92
2022-12-19T07:44:45.575Z,1010.89
2022-12-19T07:45:45.608Z,1010.96
2022-12-19T07:46:45.572Z,1010.89
2022-12-19T07:47:45.545Z,1010.92
2022-12-19T07:48:45.664Z,1010.88
2022-12-19T07:49:45.596Z,1010.93
2022-12-19T07:50:45.701Z,1010.87
2022-12-19T07:51:45.638Z,1010.82
2022-12-19T07:52:45.522Z,1010.89
2022-12-19T07:53:45.517Z,1010.90
2022-12-19T07:54:45.487Z,1010.95
2022-12-19T07:55:45.482Z,1010.93
2022-12-19T07:56:45.448Z,1010.94
2022-12-19T07:57:45.434Z,1010.94
2022-12-19T07:58:45.440Z,1010.99
2022-12-19T07:59:45.413Z,1010.95
2022-12-19T08:00:45.495Z,1010.96
2022-12-19T08:01:45.549Z,1011.01
2022-12-19T08:02:45.597Z,1011.03
2022-12-19T08:03:45.373Z,1011.03
2022-12-19T08:04:45.466Z,1010.99
2022-12-19T08:05:45.413Z,1011.02
2022-12-19T08:06:45.378Z,1011.06
2022-12-19T08:07:45.368Z,1011.00
2022-12-19T08:08:45.308Z,1011.00
2022-12-19T08:09:45.308Z,1011.01
2022-12-19T08:10:45.313Z,1011.00
2022-12-19T08:11:45.290Z,1010.99
2022-12-19T08:12:45.271Z,1011.01
2022-12-19T08:13:46.920Z,1011.01
2022-12-19T08:14:45.247Z,1011.06
2022-12-19T08:15:45.250Z,1010.97
2022-12-19T08:17:18.902Z,1011.00
2022-12-19T08:17:45.304Z,1011.00
2022-12-19T08:18:45.210Z,1010.94
2022-12-19T08:19:45.200Z,1010.99
2022-12-19T08:20:45.191Z,1010.92
2022-12-19T08:21:45.176Z,1010.95
2022-12-19T08:22:45.194Z,1010.93
2022-12-19T08:23:45.157Z,1011.00
2022-12-19T08:24:45.141Z,1010.96
2022-12-19T08:25:45.150Z,1010.93
2022-12-19T08:26:47.663Z,1010.97
2022-12-19T08:27:45.182Z,1010.99
2022-12-19T08:28:45.100Z,1011.00
2022-12-19T08:29:45.090Z,1011.02
2022-12-19T08:30:45.113Z,1011.00
2022-12-19T08:31:45.107Z,1011.02
2022-12-19T08:32:45.115Z,1011.02
2022-12-19T08:33:45.124Z,1011.04
2022-12-19T08:34:45.089Z,1011.05
2022-12-19T08:35:45.232Z,1011.07
2022-12-19T08:36:45.072Z,1011.09
2022-12-19T08:37:45.057Z,1011.07
2022-12-19T08:38:45.031Z,1011.12
2022-12-19T08:39:44.984Z,1011.12
2022-12-19T08:40:47.565Z,1011.13
2022-12-19T08:41:45.189Z,1011.07
2022-12-19T08:42:45.007Z,1011.10
2022-12-19T08:43:44.972Z,1011.11
2022-12-19T08:44:44.935Z,1011.03
2022-12-19T08:45:44.956Z,1011.05
2022-12-19T08:46:49.775Z,1011.02
2022-12-19T08:47:44.899Z,1011.06
2022-12-19T08:48:44.887Z,1011.07
2022-12-19T08:49:44.979Z,1011.07
2022-12-19T08:50:44.890Z,1011.05
2022-12-19T08:51:44.902Z,1011.05
2022-12-19T08:52:44.842Z,1011.06
2022-12-19T08:53:44.829Z,1011.07
2022-12-19T08:54:44.822Z,1010.95
2022-12-19T08:55:44.807Z,1010.97
2022-12-19T08:56:46.905Z,1010.94
2022-12-19T08:57:44.793Z,1010.88
2022-12-19T08:58:44.802Z,1010.88
2022-12-19T08:59:44.784Z,1010.89
2022-12-19T09:00:52.071Z,1010.92
2022-12-19T09:01:44.938Z,1010.93
2022-12-19T09:02:44.956Z,1010.93
2022-12-19T09:04:18.173Z,1010.94
2022-12-19T09:06:08.205Z,1010.95
2022-12-19T09:06:19.304Z,1010.96
2022-12-19T09:07:15.570Z,1010.94
2022-12-19T09:08:13.313Z,1010.90
2022-12-19T09:09:13.301Z,1010.92
2022-12-19T09:10:13.295Z,1010.90
2022-12-19T09:11:13.296Z,1010.92
2022-12-19T09:12:13.282Z,1010.87
2022-12-19T09:13:13.260Z,1010.84
2022-12-19T09:14:13.245Z,1010.88
2022-12-19T09:15:13.231Z,1010.88
2022-12-19T09:16:13.238Z,1010.89
2022-12-19T09:17:13.308Z,1010.84
2022-12-19T09:18:13.200Z,1010.86
2022-12-19T09:19:13.204Z,1010.86
2022-12-19T09:20:15.795Z,1010.88
2022-12-19T09:21:13.196Z,1010.85
2022-12-19T09:22:13.157Z,1010.85
2022-12-19T09:23:13.144Z,1010.89
2022-12-19T09:24:13.144Z,1010.97
2022-12-19T09:25:13.120Z,1010.93
2022-12-19T09:26:13.113Z,1010.92
2022-12-19T09:27:14.088Z,1010.95
2022-12-19T09:28:28.550Z,1010.98
2022-12-19T09:29:20.979Z,1011.00
2022-12-19T09:30:13.086Z,1011.01
2022-12-19T09:31:13.331Z,1011.01
2022-12-19T09:32:13.457Z,1011.02
2022-12-19T09:33:13.217Z,1011.02
2022-12-19T09:34:13.026Z,1010.97
2022-12-19T09:35:13.542Z,1010.93
2022-12-19T09:36:13.017Z,1010.93
2022-12-19T09:37:17.060Z,1010.97
2022-12-19T09:38:12.979Z,1010.97
2022-12-19T09:39:12.962Z,1010.94
2022-12-19T09:40:12.960Z,1010.97
2022-12-19T09:41:12.967Z,1010.98
2022-12-19T09:42:12.953Z,1010.97
2022-12-19T09:43:12.929Z,1010.95
2022-12-19T09:44:13.045Z,1010.95
2022-12-19T09:45:15.488Z,1010.94
2022-12-19T09:46:13.039Z,1010.96
2022-12-19T09:47:12.886Z,1010.92
2022-12-19T09:48:17.765Z,1010.94
2022-12-19T09:49:12.860Z,1010.92
2022-12-19T09:50:12.855Z,1010.94
2022-12-19T09:51:12.833Z,1010.93
2022-12-19T09:52:12.835Z,1010.88
2022-12-19T09:53:12.810Z,1010.92
2022-12-19T09:54:12.992Z,1010.90
2022-12-19T09:55:13.982Z,1010.90
2022-12-19T09:56:12.779Z,1010.92
2022-12-19T09:57:12.779Z,1010.92
2022-12-19T09:58:12.773Z,1010.92
2022-12-19T09:59:12.750Z,1010.91
2022-12-19T10:00:12.752Z,1010.90
2022-12-19T10:01:12.759Z,1010.93
2022-12-19T10:02:12.979Z,1010.95
2022-12-19T10:03:12.993Z,1010.94
2022-12-19T10:04:12.690Z,1010.97
2022-12-19T10:05:14.230Z,1010.95
2022-12-19T10:07:11.735Z,1010.94
2022-12-19T10:07:54.712Z,1010.89
2022-12-19T10:08:12.672Z,1010.89
2022-12-19T10:10:19.056Z,1010.92
2022-12-19T10:12:52.270Z,1010.91
2022-12-19T10:12:59.762Z,1010.93
2022-12-19T10:13:51.440Z,1010.91
2022-12-19T10:14:51.416Z,1010.93
2022-12-19T10:15:59.915Z,1010.88
2022-12-19T10:17:22.103Z,1010.89
2022-12-19T10:17:51.398Z,1010.92
2022-12-19T10:18:56.485Z,1010.93
2022-12-19T10:19:51.371Z,1010.93
2022-12-19T10:20:51.346Z,1010.90
2022-12-19T10:22:17.219Z,1010.91
2022-12-19T10:22:51.361Z,1010.94
2022-12-19T10:23:51.381Z,1011.00
2022-12-19T10:25:08.034Z,1010.97
2022-12-19T10:25:51.316Z,1010.98
2022-12-19T10:26:52.220Z,1010.90
2022-12-19T10:27:59.311Z,1010.98
2022-12-19T10:28:51.270Z,1010.97
2022-12-19T10:29:51.253Z,1010.94
2022-12-19T10:30:51.352Z,1010.91
2022-12-19T10:31:53.598Z,1010.92
2022-12-19T10:32:51.231Z,1010.85
2022-12-19T10:33:51.232Z,1010.87
2022-12-19T10:34:51.201Z,1010.87
2022-12-19T10:35:51.198Z,1010.84
2022-12-19T10:37:51.195Z,1010.90
2022-12-19T10:38:51.976Z,1010.87
2022-12-19T10:39:51.150Z,1010.89
2022-12-19T10:40:51.141Z,1010.91
2022-12-19T10:41:51.131Z,1010.89
2022-12-19T10:42:51.160Z,1010.87
2022-12-19T10:43:51.144Z,1010.92
2022-12-19T10:44:51.101Z,1010.93
2022-12-19T10:45:51.111Z,1010.87
2022-12-19T10:46:51.184Z,1010.93
2022-12-19T10:47:51.138Z,1010.92
2022-12-19T10:48:51.073Z,1010.88
2022-12-19T10:49:51.047Z,1010.94
2022-12-19T10:50:51.016Z,1010.83
2022-12-19T10:51:51.117Z,1010.88
2022-12-19T10:52:51.012Z,1010.86
2022-12-19T10:53:50.988Z,1010.88
2022-12-19T10:54:50.979Z,1010.87
2022-12-19T10:55:50.965Z,1010.89
2022-12-19T10:56:50.992Z,1010.91
2022-12-19T10:57:50.979Z,1010.94
2022-12-19T10:58:50.933Z,1010.83
2022-12-19T10:59:50.942Z,1010.82
2022-12-19T11:00:50.954Z,1010.83
2022-12-19T11:02:00.775Z,1010.82
2022-12-19T11:02:51.081Z,1010.87
2022-12-19T11:03:50.878Z,1010.82
2022-12-19T11:04:50.900Z,1010.83
2022-12-19T11:05:56.967Z,1010.84
2022-12-19T11:06:50.850Z,1010.87
2022-12-19T11:07:51.083Z,1010.82
2022-12-19T11:08:51.189Z,1010.83
2022-12-19T11:10:13.401Z,1010.79
2022-12-19T11:14:24.574Z,1010.82
2022-12-19T11:29:16.962Z,1010.79
2022-12-19T11:32:41.845Z,1010.66
2022-12-19T11:33:14.640Z,1010.61
2022-12-19T11:34:14.512Z,1010.64
2022-12-19T11:35:14.499Z,1010.65
2022-12-19T11:36:14.484Z,1010.60
2022-12-19T11:37:14.479Z,1010.58
2022-12-19T11:38:14.474Z,1010.56
2022-12-19T11:39:14.465Z,1010.57
2022-12-19T11:40:14.467Z,1010.65
2022-12-19T11:41:14.430Z,1010.62
2022-12-19T11:42:14.418Z,1010.69
2022-12-19T11:43:45.774Z,1010.67
2022-12-19T11:44:14.420Z,1010.64
2022-12-19T11:45:14.395Z,1010.68
2022-12-19T11:46:21.160Z,1010.69
2022-12-19T11:47:14.380Z,1010.69
2022-12-19T11:48:14.362Z,1010.69
2022-12-19T11:49:14.355Z,1010.68
2022-12-19T11:50:14.334Z,1010.71
2022-12-19T11:51:14.343Z,1010.74
2022-12-19T11:52:36.824Z,1010.72
2022-12-19T11:53:18.915Z,1010.72
2022-12-19T11:54:14.292Z,1010.68
2022-12-19T11:55:14.283Z,1010.72
2022-12-19T11:56:15.871Z,1010.74
2022-12-19T11:57:14.268Z,1010.72
2022-12-19T11:58:14.263Z,1010.78
2022-12-19T11:59:14.246Z,1010.75
2022-12-19T12:00:14.224Z,1010.74
2022-12-19T12:01:14.216Z,1010.76
2022-12-19T12:02:14.203Z,1010.73
2022-12-19T12:03:14.263Z,1010.71
2022-12-19T12:04:14.388Z,1010.66
2022-12-19T12:05:14.184Z,1010.63
2022-12-19T12:06:14.157Z,1010.59
2022-12-19T12:07:33.220Z,1010.56
2022-12-19T12:10:00.192Z,1010.55
2022-12-19T12:18:06.211Z,1010.53
2022-12-19T12:35:33.126Z,1010.54
2022-12-19T12:38:14.584Z,1010.64
2022-12-19T12:38:27.854Z,1010.58
2022-12-19T12:39:03.192Z,1010.57
2022-12-19T12:40:03.168Z,1010.55
2022-12-19T12:41:03.164Z,1010.54
2022-12-19T12:42:03.148Z,1010.52
2022-12-19T12:43:03.129Z,1010.46
2022-12-19T12:44:03.133Z,1010.48
2022-12-19T12:45:03.108Z,1010.44
2022-12-19T12:46:03.513Z,1010.50
2022-12-19T12:47:04.417Z,1010.45
2022-12-19T12:48:03.470Z,1010.47
2022-12-19T12:49:03.307Z,1010.48
2022-12-19T12:50:03.507Z,1010.42
2022-12-19T12:51:03.457Z,1010.42
2022-12-19T12:52:03.436Z,1010.41
2022-12-19T12:53:03.444Z,1010.42
2022-12-19T12:54:03.461Z,1010.37
2022-12-19T12:55:05.047Z,1010.40
2022-12-19T12:56:05.611Z,1010.40
2022-12-19T12:57:04.422Z,1010.39